createdAt,value
2019-05-09T00:02:37.991Z,7.63
2019-05-09T00:05:25.491Z,7.67
2019-05-09T00:08:13.901Z,7.60
2019-05-09T00:11:03.705Z,7.41
2019-05-09T00:13:50.743Z,7.50
2019-05-09T00:16:38.056Z,7.39
2019-05-09T00:19:25.550Z,7.43
2019-05-09T00:22:13.927Z,7.26
2019-05-09T00:25:06.040Z,7.40
2019-05-09T00:27:53.760Z,7.23
2019-05-09T00:31:03.866Z,7.29
2019-05-09T00:33:56.229Z,7.07
2019-05-09T00:36:44.112Z,7.18
2019-05-09T00:39:33.989Z,7.06
2019-05-09T00:42:23.981Z,6.99
2019-05-09T00:45:33.387Z,7.02
2019-05-09T00:48:24.244Z,7.22
2019-05-09T00:51:14.052Z,7.23
2019-05-09T00:54:01.156Z,7.37
2019-05-09T00:56:48.971Z,7.40
2019-05-09T00:59:36.449Z,7.52
2019-05-09T01:02:26.399Z,7.41
2019-05-09T01:05:13.991Z,7.55
2019-05-09T01:08:04.190Z,7.46
2019-05-09T01:10:52.987Z,7.50
2019-05-09T01:13:43.307Z,7.54
2019-05-09T01:16:30.753Z,7.65
2019-05-09T01:19:18.808Z,7.50
2019-05-09T01:22:06.251Z,7.38
2019-05-09T01:24:54.238Z,7.40
2019-05-09T01:27:43.135Z,7.46
2019-05-09T01:30:33.419Z,7.41
2019-05-09T01:33:29.803Z,7.27
2019-05-09T01:36:17.105Z,7.27
2019-05-09T01:39:06.010Z,7.16
2019-05-09T01:41:53.293Z,7.01
2019-05-09T01:44:44.049Z,6.98
2019-05-09T01:47:31.070Z,6.99
2019-05-09T01:50:18.892Z,6.89
2019-05-09T01:53:06.820Z,7.06
2019-05-09T01:56:00.394Z,7.01
2019-05-09T01:58:48.121Z,7.10
2019-05-09T02:01:36.132Z,6.91
2019-05-09T02:04:24.405Z,6.79
2019-05-09T02:07:13.257Z,6.72
2019-05-09T02:10:03.243Z,6.68
2019-05-09T02:12:50.483Z,6.67
2019-05-09T02:15:48.554Z,6.69
2019-05-09T02:19:04.428Z,6.80
2019-05-09T02:21:53.108Z,6.86
2019-05-09T02:24:41.354Z,6.88
2019-05-09T02:27:29.026Z,6.59
2019-05-09T02:30:19.079Z,6.58
2019-05-09T02:33:06.257Z,6.86
2019-05-09T02:35:58.230Z,6.77
2019-05-09T02:38:42.780Z,6.71
2019-05-09T02:41:30.887Z,6.66
2019-05-09T02:44:19.594Z,6.78
2019-05-09T02:47:12.928Z,6.56
2019-05-09T02:50:00.269Z,6.44
2019-05-09T02:52:48.671Z,6.44
2019-05-09T02:55:38.719Z,6.36
2019-05-09T02:58:28.300Z,6.38
2019-05-09T03:01:35.070Z,6.41
2019-05-09T03:04:22.903Z,6.63
2019-05-09T03:07:10.522Z,6.50
2019-05-09T03:09:58.373Z,6.63
2019-05-09T03:12:49.758Z,6.51
2019-05-09T03:15:35.706Z,6.46
2019-05-09T03:18:23.513Z,6.54
2019-05-09T03:21:25.696Z,6.53
2019-05-09T03:24:12.870Z,6.60
2019-05-09T03:27:08.321Z,6.70
2019-05-09T03:29:58.884Z,6.73
2019-05-09T03:32:49.072Z,6.71
2019-05-09T03:35:37.883Z,6.62
2019-05-09T03:38:25.544Z,6.63
2019-05-09T03:41:13.001Z,6.62
2019-05-09T03:44:00.570Z,6.64
2019-05-09T03:47:13.324Z,6.61
2019-05-09T03:50:08.402Z,6.38
2019-05-09T03:52:57.935Z,6.28
2019-05-09T03:55:44.640Z,6.23
2019-05-09T03:58:32.011Z,6.11
2019-05-09T04:01:19.171Z,6.13
2019-05-09T04:04:08.777Z,6.19
2019-05-09T04:06:58.058Z,6.24
2019-05-09T04:09:47.870Z,6.32
2019-05-09T04:12:37.433Z,6.26
2019-05-09T04:15:24.272Z,6.19
2019-05-09T04:18:11.660Z,6.09
2019-05-09T04:20:59.491Z,6.11
2019-05-09T04:23:48.080Z,6.14
2019-05-09T04:27:00.003Z,6.25
2019-05-09T04:29:48.418Z,6.12
2019-05-09T04:32:37.719Z,6.21
2019-05-09T04:35:25.405Z,6.21
2019-05-09T04:38:13.217Z,6.18
2019-05-09T04:41:00.654Z,6.11
2019-05-09T04:43:48.797Z,6.15
2019-05-09T04:46:37.751Z,6.38
2019-05-09T04:49:25.184Z,6.54
2019-05-09T04:52:12.834Z,6.69
2019-05-09T04:54:59.921Z,6.77
2019-05-09T04:57:48.575Z,7.40
2019-05-09T05:00:57.299Z,8.31
2019-05-09T05:03:48.003Z,8.46
2019-05-09T05:06:35.380Z,9.18
2019-05-09T05:09:23.374Z,9.36
2019-05-09T05:12:11.215Z,10.71
2019-05-09T05:14:59.842Z,11.56
2019-05-09T05:17:47.819Z,12.16
2019-05-09T05:20:37.895Z,13.26
2019-05-09T05:23:30.653Z,13.51
2019-05-09T05:26:19.431Z,15.21
2019-05-09T05:29:08.443Z,15.76
2019-05-09T05:31:58.221Z,16.86
2019-05-09T05:35:07.605Z,15.35
2019-05-09T05:37:55.087Z,14.47
2019-05-09T05:40:46.103Z,13.52
2019-05-09T05:43:41.572Z,14.51
2019-05-09T05:46:41.213Z,15.74
2019-05-09T05:49:29.202Z,16.51
2019-05-09T05:52:18.525Z,17.44
2019-05-09T05:55:07.575Z,18.58
2019-05-09T05:57:57.829Z,17.88
2019-05-09T06:00:44.905Z,16.48
2019-05-09T06:03:32.501Z,15.05
2019-05-09T06:06:19.932Z,13.72
2019-05-09T06:09:08.392Z,12.75
2019-05-09T06:11:57.711Z,12.52
2019-05-09T06:14:45.215Z,12.21
2019-05-09T06:17:32.531Z,11.88
2019-05-09T06:20:20.370Z,11.53
2019-05-09T06:23:08.679Z,11.11
2019-05-09T06:25:58.730Z,10.94
2019-05-09T06:28:48.001Z,11.05
2019-05-09T06:31:35.031Z,10.91
2019-05-09T06:34:22.621Z,11.10
2019-05-09T06:37:10.900Z,10.78
2019-05-09T06:39:58.698Z,10.74
2019-05-09T06:42:48.686Z,10.59
2019-05-09T06:45:53.891Z,10.52
2019-05-09T06:48:41.560Z,10.44
2019-05-09T06:51:29.141Z,10.39
2019-05-09T06:54:17.512Z,10.38
2019-05-09T06:57:05.084Z,10.38
2019-05-09T06:59:52.822Z,10.38
2019-05-09T07:02:48.347Z,10.41
2019-05-09T07:05:53.723Z,10.33
2019-05-09T07:08:47.734Z,10.54
2019-05-09T07:11:35.325Z,10.73
2019-05-09T07:14:37.895Z,10.91
2019-05-09T07:17:23.252Z,11.59
2019-05-09T07:20:10.648Z,12.24
2019-05-09T07:22:58.543Z,12.46
2019-05-09T07:26:07.950Z,12.66
2019-05-09T07:28:55.479Z,13.00
2019-05-09T07:31:57.341Z,13.15
2019-05-09T07:34:48.446Z,12.58
2019-05-09T07:37:37.846Z,12.04
2019-05-09T07:40:30.151Z,11.76
2019-05-09T07:43:14.519Z,11.53
2019-05-09T07:46:08.820Z,11.30
2019-05-09T07:48:57.774Z,11.26
2019-05-09T07:51:47.651Z,11.08
2019-05-09T07:54:34.677Z,10.78
2019-05-09T07:57:22.814Z,10.73
2019-05-09T08:00:14.054Z,10.61
2019-05-09T08:03:01.309Z,10.41
2019-05-09T08:05:49.347Z,10.39
2019-05-09T08:08:38.487Z,10.31
2019-05-09T08:11:28.476Z,10.24
2019-05-09T08:14:17.684Z,10.34
2019-05-09T08:17:08.396Z,10.45
2019-05-09T08:19:55.529Z,10.56
2019-05-09T08:22:50.775Z,10.68
2019-05-09T08:25:32.147Z,10.85
2019-05-09T08:28:20.311Z,10.92
2019-05-09T08:31:08.392Z,11.01
2019-05-09T08:33:59.020Z,11.14
2019-05-09T08:36:47.785Z,11.28
2019-05-09T08:39:38.084Z,11.52
2019-05-09T08:42:24.834Z,11.82
2019-05-09T08:45:24.491Z,12.03
2019-05-09T08:48:02.595Z,12.26
2019-05-09T08:50:58.230Z,12.56
2019-05-09T08:53:48.007Z,14.03
2019-05-09T08:56:34.742Z,15.10
2019-05-09T08:59:21.926Z,15.12
2019-05-09T09:02:15.237Z,15.31
2019-05-09T09:04:59.501Z,15.62
2019-05-09T09:07:48.514Z,15.68
2019-05-09T09:10:38.469Z,15.94
2019-05-09T09:13:28.344Z,16.13
2019-05-09T09:16:22.082Z,16.18
2019-05-09T09:19:08.704Z,16.41
2019-05-09T09:22:00.497Z,16.82
2019-05-09T09:24:48.200Z,16.98
2019-05-09T09:27:37.874Z,16.81
2019-05-09T09:30:25.409Z,17.04
2019-05-09T09:33:13.943Z,17.35
2019-05-09T09:36:01.720Z,16.89
2019-05-09T09:38:49.049Z,16.16
2019-05-09T09:41:38.595Z,15.81
2019-05-09T09:44:25.641Z,15.55
2019-05-09T09:47:20.614Z,15.81
2019-05-09T09:50:05.180Z,15.82
2019-05-09T09:52:53.934Z,15.60
2019-05-09T09:55:41.325Z,15.29
2019-05-09T09:58:28.705Z,15.52
2019-05-09T10:01:28.782Z,15.74
2019-05-09T10:04:24.002Z,15.71
2019-05-09T10:07:08.887Z,15.60
2019-05-09T10:09:58.403Z,15.72
2019-05-09T10:12:49.378Z,15.84
2019-05-09T10:15:43.949Z,15.89
2019-05-09T10:18:39.171Z,15.62
2019-05-09T10:21:33.077Z,15.80
2019-05-09T10:24:20.760Z,15.75
2019-05-09T10:27:18.637Z,15.52
2019-05-09T10:30:06.142Z,15.07
2019-05-09T10:32:53.933Z,15.15
2019-05-09T10:35:41.716Z,15.57
2019-05-09T10:38:29.062Z,15.86
2019-05-09T10:41:16.491Z,15.94
2019-05-09T10:44:28.323Z,15.45
2019-05-09T10:47:23.507Z,15.43
2019-05-09T10:50:11.408Z,15.55
2019-05-09T10:53:00.009Z,15.30
2019-05-09T10:55:48.133Z,15.58
2019-05-09T10:58:37.430Z,15.51
2019-05-09T11:01:25.135Z,15.82
2019-05-09T11:04:12.722Z,15.89
2019-05-09T11:07:00.691Z,15.90
2019-05-09T11:09:48.727Z,15.94
2019-05-09T11:12:36.723Z,16.37
2019-05-09T11:15:25.134Z,16.67
2019-05-09T11:18:13.763Z,16.46
2019-05-09T11:21:01.114Z,16.28
2019-05-09T11:23:49.190Z,16.31
2019-05-09T11:26:39.530Z,16.06
2019-05-09T11:29:28.062Z,15.80
2019-05-09T11:32:17.868Z,15.66
2019-05-09T11:35:09.044Z,15.15
2019-05-09T11:37:59.089Z,15.42
2019-05-09T11:40:48.214Z,15.56
2019-05-09T11:43:38.809Z,15.50
2019-05-09T11:46:25.123Z,15.24
2019-05-09T11:49:12.600Z,15.30
2019-05-09T11:52:00.415Z,15.32
2019-05-09T11:54:48.400Z,15.39
2019-05-09T11:57:38.189Z,15.38
2019-05-09T12:00:25.018Z,15.59
2019-05-09T12:03:14.108Z,15.94
2019-05-09T12:06:01.872Z,16.31
2019-05-09T12:08:49.257Z,16.43
2019-05-09T12:11:40.072Z,16.20
2019-05-09T12:14:27.723Z,16.09
2019-05-09T12:17:19.271Z,16.29
2019-05-09T12:20:12.413Z,16.21
2019-05-09T12:22:58.174Z,16.18
2019-05-09T12:25:45.087Z,16.15
2019-05-09T12:28:32.519Z,15.85
2019-05-09T12:31:19.837Z,16.16
2019-05-09T12:34:09.111Z,16.31
2019-05-09T12:36:58.575Z,16.20
2019-05-09T12:39:47.829Z,16.20
2019-05-09T12:42:34.690Z,15.94
2019-05-09T12:45:22.667Z,15.26
2019-05-09T12:48:15.346Z,15.69
2019-05-09T12:51:01.138Z,16.12
2019-05-09T12:53:48.816Z,16.21
2019-05-09T12:56:38.484Z,16.07
2019-05-09T12:59:28.531Z,16.11
2019-05-09T13:02:17.739Z,15.94
2019-05-09T13:05:04.726Z,16.28
2019-05-09T13:07:53.420Z,15.82
2019-05-09T13:10:41.097Z,16.08
2019-05-09T13:13:32.080Z,16.10
2019-05-09T13:16:50.777Z,15.90
2019-05-09T13:19:38.519Z,15.67
2019-05-09T13:22:28.384Z,15.63
2019-05-09T13:25:15.375Z,15.46
2019-05-09T13:28:02.973Z,15.52
2019-05-09T13:30:50.856Z,15.69
2019-05-09T13:33:41.476Z,15.92
2019-05-09T13:36:28.646Z,15.90
2019-05-09T13:39:17.907Z,15.58
2019-05-09T13:42:07.995Z,15.69
2019-05-09T13:44:56.508Z,15.68
2019-05-09T13:47:43.835Z,15.74
2019-05-09T13:50:31.053Z,15.85
2019-05-09T13:53:19.281Z,15.72
2019-05-09T13:56:08.454Z,15.90
2019-05-09T13:58:58.131Z,16.22
2019-05-09T14:01:44.650Z,16.44
2019-05-09T14:04:32.362Z,16.51
2019-05-09T14:07:20.106Z,16.43
2019-05-09T14:10:08.876Z,15.86
2019-05-09T14:13:06.897Z,16.10
2019-05-09T14:15:45.642Z,16.22
2019-05-09T14:18:32.870Z,16.30
2019-05-09T14:21:25.448Z,15.90
2019-05-09T14:24:15.060Z,15.80
2019-05-09T14:26:58.361Z,15.70
2019-05-09T14:29:46.380Z,15.71
2019-05-09T14:32:36.069Z,15.12
2019-05-09T14:35:24.946Z,14.82
2019-05-09T14:38:12.529Z,14.49
2019-05-09T14:41:00.000Z,13.77
2019-05-09T14:43:48.942Z,13.23
2019-05-09T14:46:36.262Z,13.40
2019-05-09T14:49:23.367Z,13.49
2019-05-09T14:52:10.671Z,13.65
2019-05-09T14:54:58.260Z,14.05
2019-05-09T14:57:47.978Z,14.36
2019-05-09T15:00:42.293Z,14.48
2019-05-09T15:03:30.246Z,14.30
2019-05-09T15:06:18.356Z,14.03
2019-05-09T15:09:08.594Z,14.06
2019-05-09T15:11:58.519Z,14.29
2019-05-09T15:14:47.877Z,14.58
2019-05-09T15:17:35.130Z,14.67
2019-05-09T15:20:22.825Z,14.58
2019-05-09T15:23:10.416Z,14.51
2019-05-09T15:25:58.777Z,14.97
2019-05-09T15:28:48.182Z,14.97
2019-05-09T15:31:39.275Z,15.18
2019-05-09T15:34:29.021Z,15.28
2019-05-09T15:37:18.620Z,15.12
2019-05-09T15:40:08.395Z,15.12
2019-05-09T15:42:55.284Z,14.87
2019-05-09T15:45:54.460Z,14.77
2019-05-09T15:48:42.273Z,14.72
2019-05-09T15:51:32.116Z,14.87
2019-05-09T15:54:18.843Z,14.59
2019-05-09T15:57:08.669Z,14.66
2019-05-09T15:59:55.413Z,14.49
2019-05-09T16:02:43.095Z,14.58
2019-05-09T16:05:31.884Z,14.78
2019-05-09T16:08:19.352Z,15.05
2019-05-09T16:11:08.727Z,14.98
2019-05-09T16:13:56.214Z,14.96
2019-05-09T16:16:43.919Z,14.94
2019-05-09T16:22:13.310Z,14.72
2019-05-09T16:25:00.605Z,14.57
2019-05-09T16:27:48.580Z,14.42
2019-05-09T16:30:38.328Z,14.46
2019-05-09T16:33:27.907Z,14.49
2019-05-09T16:36:17.612Z,14.46
2019-05-09T16:39:07.451Z,14.43
2019-05-09T16:41:55.036Z,14.42
2019-05-09T16:44:42.463Z,14.46
2019-05-09T16:47:32.972Z,14.41
2019-05-09T16:50:21.080Z,13.90
2019-05-09T16:53:09.610Z,14.00
2019-05-09T16:55:57.882Z,13.97
2019-05-09T16:58:45.609Z,13.87
2019-05-09T17:01:34.446Z,14.01
2019-05-09T17:04:21.542Z,13.88
2019-05-09T17:07:09.049Z,13.89
2019-05-09T17:09:59.105Z,13.76
2019-05-09T17:12:47.908Z,13.82
2019-05-09T17:15:35.057Z,13.91
2019-05-09T17:18:22.958Z,14.06
2019-05-09T17:21:28.516Z,14.01
2019-05-09T17:24:18.535Z,14.03
2019-05-09T17:27:08.693Z,13.88
2019-05-09T17:29:58.961Z,13.94
2019-05-09T17:32:47.460Z,13.65
2019-05-09T17:35:35.386Z,13.73
2019-05-09T17:38:22.579Z,13.77
2019-05-09T17:41:11.234Z,13.79
2019-05-09T17:43:58.730Z,13.73
2019-05-09T17:46:48.030Z,13.68
2019-05-09T17:49:37.497Z,13.55
2019-05-09T17:52:24.815Z,13.48
2019-05-09T17:55:12.850Z,13.53
2019-05-09T17:58:00.332Z,13.57
2019-05-09T18:00:50.282Z,13.60
2019-05-09T18:03:38.442Z,13.52
2019-05-09T18:06:28.147Z,13.47
2019-05-09T18:09:15.938Z,13.35
2019-05-09T18:12:03.584Z,13.19
2019-05-09T18:14:51.141Z,13.07
2019-05-09T18:17:38.873Z,13.06
2019-05-09T18:20:28.379Z,12.82
2019-05-09T18:23:17.684Z,12.82
2019-05-09T18:26:07.922Z,12.79
2019-05-09T18:29:01.009Z,12.80
2019-05-09T18:32:08.020Z,12.64
2019-05-09T18:35:08.086Z,12.74
2019-05-09T18:37:55.766Z,12.65
2019-05-09T18:40:43.398Z,12.57
2019-05-09T18:43:30.695Z,12.56
2019-05-09T18:46:21.515Z,12.56
2019-05-09T18:49:08.443Z,12.52
2019-05-09T18:52:03.409Z,12.61
2019-05-09T18:54:44.970Z,12.63
2019-05-09T18:57:33.258Z,12.65
2019-05-09T19:00:21.626Z,12.59
2019-05-09T19:03:09.159Z,12.55
2019-05-09T19:05:56.625Z,12.52
2019-05-09T19:08:44.277Z,12.50
2019-05-09T19:11:31.944Z,12.30
2019-05-09T19:14:21.323Z,12.35
2019-05-09T19:17:39.983Z,12.37
2019-05-09T19:20:38.038Z,12.30
2019-05-09T19:23:25.889Z,12.27
2019-05-09T19:26:31.251Z,12.20
2019-05-09T19:29:18.711Z,12.16
2019-05-09T19:32:06.725Z,11.78
2019-05-09T19:34:54.911Z,11.71
2019-05-09T19:37:42.206Z,11.47
2019-05-09T19:40:29.614Z,11.54
2019-05-09T19:43:17.160Z,11.41
2019-05-09T19:46:04.215Z,11.24
2019-05-09T19:48:51.988Z,11.25
2019-05-09T19:51:39.751Z,11.35
2019-05-09T19:54:27.108Z,11.24
2019-05-09T19:57:14.623Z,11.19
2019-05-09T20:00:02.207Z,11.17
2019-05-09T20:02:49.868Z,11.11
2019-05-09T20:05:36.953Z,11.18
2019-05-09T20:08:24.451Z,11.28
2019-05-09T20:11:26.370Z,11.20
2019-05-09T20:14:26.756Z,11.22
2019-05-09T20:17:14.152Z,11.26
2019-05-09T20:20:01.850Z,11.20
2019-05-09T20:22:52.891Z,11.17
2019-05-09T20:25:38.450Z,11.22
2019-05-09T20:28:25.889Z,11.29
2019-05-09T20:31:13.261Z,11.29
2019-05-09T20:34:00.660Z,11.34
2019-05-09T20:36:48.456Z,11.23
2019-05-09T20:39:38.619Z,11.33
2019-05-09T20:42:31.038Z,11.42
2019-05-09T20:45:18.677Z,11.48
2019-05-09T20:48:06.629Z,11.37
2019-05-09T20:50:54.480Z,11.40
2019-05-09T20:53:42.361Z,11.37
2019-05-09T20:56:30.779Z,11.37
2019-05-09T20:59:18.722Z,11.22
2019-05-09T21:02:06.591Z,11.25
2019-05-09T21:04:54.221Z,11.25
2019-05-09T21:07:41.989Z,11.34
2019-05-09T21:10:29.874Z,11.37
2019-05-09T21:13:17.444Z,11.24
2019-05-09T21:16:04.823Z,11.21
2019-05-09T21:18:53.753Z,11.27
2019-05-09T21:21:41.484Z,11.12
2019-05-09T21:24:30.300Z,11.11
2019-05-09T21:27:18.917Z,10.92
2019-05-09T21:30:07.196Z,10.81
2019-05-09T21:32:55.409Z,10.62
2019-05-09T21:35:43.483Z,10.56
2019-05-09T21:38:31.880Z,10.65
2019-05-09T21:41:20.039Z,10.61
2019-05-09T21:44:07.569Z,10.65
2019-05-09T21:46:58.956Z,10.60
2019-05-09T21:49:46.345Z,10.69
2019-05-09T21:52:33.547Z,10.73
2019-05-09T21:55:21.405Z,10.88
2019-05-09T21:58:09.544Z,10.81
2019-05-09T22:00:58.793Z,10.94
2019-05-09T22:03:46.217Z,11.04
2019-05-09T22:06:33.715Z,11.17
2019-05-09T22:09:21.405Z,11.20
2019-05-09T22:12:09.125Z,11.23
2019-05-09T22:14:56.648Z,11.19
2019-05-09T22:17:45.470Z,11.22
2019-05-09T22:20:33.098Z,11.20
2019-05-09T22:23:20.761Z,11.16
2019-05-09T22:26:09.602Z,11.16
2019-05-09T22:28:57.141Z,11.16
2019-05-09T22:31:44.264Z,11.13
2019-05-09T22:34:32.308Z,11.17
2019-05-09T22:37:20.163Z,11.16
2019-05-09T22:40:09.349Z,11.16
2019-05-09T22:42:56.601Z,11.05
2019-05-09T22:45:45.042Z,11.16
2019-05-09T22:48:32.700Z,11.13
2019-05-09T22:51:20.391Z,11.16
2019-05-09T22:54:12.867Z,11.17
2019-05-09T22:56:57.572Z,11.24
2019-05-09T22:59:44.777Z,11.12
2019-05-09T23:02:32.291Z,11.21
2019-05-09T23:05:19.855Z,11.26
2019-05-09T23:08:07.180Z,11.25
2019-05-09T23:10:54.834Z,11.28
2019-05-09T23:13:54.328Z,11.32
2019-05-09T23:16:42.087Z,11.24
2019-05-09T23:19:29.669Z,11.17
2019-05-09T23:22:17.776Z,11.20
2019-05-09T23:25:05.979Z,11.27
2019-05-09T23:27:53.449Z,11.26
2019-05-09T23:30:41.036Z,11.23
2019-05-09T23:33:30.363Z,11.20
2019-05-09T23:36:17.486Z,11.18
2019-05-09T23:39:26.339Z,11.29
2019-05-09T23:42:13.798Z,11.25
2019-05-09T23:45:01.284Z,11.25
2019-05-09T23:47:50.023Z,11.25
2019-05-09T23:50:38.913Z,11.25
2019-05-09T23:53:37.346Z,11.17
2019-05-09T23:56:42.951Z,11.25
2019-05-09T23:59:47.846Z,11.24
